sensor_id;sensor_type;location;lat;lon;timestamp;pressure;altitude;pressure_sealevel;temperature;humidity
26978;BME280;56314;48.088;11.642;2022-12-18T00:01:56;96443.72;;;-4.53;95.94
26978;BME280;56314;48.088;11.642;2022-12-18T00:04:23;96441.19;;;-4.58;94.81
26978;BME280;56314;48.088;11.642;2022-12-18T00:06:49;96441.19;;;-4.58;95.93
26978;BME280;56314;48.088;11.642;2022-12-18T00:09:15;96437.72;;;-4.57;95.60
26978;BME280;56314;48.088;11.642;2022-12-18T00:11:41;96431.75;;;-4.56;95.46
26978;BME280;56314;48.088;11.642;2022-12-18T00:14:06;96430.91;;;-4.64;95.84
26978;BME280;56314;48.088;11.642;2022-12-18T00:16:32;96426.63;;;-4.54;95.82
26978;BME280;56314;48.088;11.642;2022-12-18T00:19:01;96433.47;;;-4.64;94.69
26978;BME280;56314;48.088;11.642;2022-12-18T00:21:27;96423.22;;;-4.69;94.44
26978;BME280;56314;48.088;11.642;2022-12-18T00:23:53;96430.06;;;-4.63;95.09
26978;BME280;56314;48.088;11.642;2022-12-18T00:26:24;96430.91;;;-4.69;94.85
26978;BME280;56314;48.088;11.642;2022-12-18T00:28:50;96433.47;;;-4.73;95.56
26978;BME280;56314;48.088;11.642;2022-12-18T00:31:19;96430.06;;;-4.79;95.39
26978;BME280;56314;48.088;11.642;2022-12-18T00:33:45;96433.47;;;-4.81;95.13
26978;BME280;56314;48.088;11.642;2022-12-18T00:36:22;96444.56;;;-4.85;95.54
26978;BME280;56314;48.088;11.642;2022-12-18T00:38:49;96452.28;;;-4.91;95.94
26978;BME280;56314;48.088;11.642;2022-12-18T00:41:15;96459.94;;;-5.07;96.55
26978;BME280;56314;48.088;11.642;2022-12-18T00:44:01;96471.91;;;-4.95;96.04
26978;BME280;56314;48.088;11.642;2022-12-18T00:46:26;96471.91;;;-5.03;96.57
26978;BME280;56314;48.088;11.642;2022-12-18T00:48:52;96466.78;;;-5.07;96.62
26978;BME280;56314;48.088;11.642;2022-12-18T00:51:17;96453.97;;;-5.06;96.83
26978;BME280;56314;48.088;11.642;2022-12-18T00:53:42;96449.69;;;-5.02;96.78
26978;BME280;56314;48.088;11.642;2022-12-18T00:56:08;96463.34;;;-5.08;96.25
26978;BME280;56314;48.088;11.642;2022-12-18T00:58:36;96471.91;;;-5.06;96.41
26978;BME280;56314;48.088;11.642;2022-12-18T01:01:04;96468.47;;;-5.05;96.99
26978;BME280;56314;48.088;11.642;2022-12-18T01:03:29;96474.44;;;-5.06;96.71
26978;BME280;56314;48.088;11.642;2022-12-18T01:05:56;96465.91;;;-5.05;96.02
26978;BME280;56314;48.088;11.642;2022-12-18T01:08:21;96464.22;;;-4.93;95.76
26978;BME280;56314;48.088;11.642;2022-12-18T01:10:46;96476.19;;;-4.92;96.00
26978;BME280;56314;48.088;11.642;2022-12-18T01:13:12;96482.16;;;-5.00;95.29
26978;BME280;56314;48.088;11.642;2022-12-18T01:15:37;96477.03;;;-5.00;96.10
26978;BME280;56314;48.088;11.642;2022-12-18T01:18:06;96489.84;;;-4.95;95.82
26978;BME280;56314;48.088;11.642;2022-12-18T01:20:31;96489.84;;;-5.03;95.49
26978;BME280;56314;48.088;11.642;2022-12-18T01:22:57;96499.25;;;-4.94;95.24
26978;BME280;56314;48.088;11.642;2022-12-18T01:25:22;96502.66;;;-4.75;95.20
26978;BME280;56314;48.088;11.642;2022-12-18T01:27:47;96503.50;;;-4.81;95.26
26978;BME280;56314;48.088;11.642;2022-12-18T01:30:13;96512.06;;;-4.74;94.49
26978;BME280;56314;48.088;11.642;2022-12-18T01:32:38;96512.06;;;-4.89;93.58
26978;BME280;56314;48.088;11.642;2022-12-18T01:35:04;96521.41;;;-4.98;94.39
26978;BME280;56314;48.088;11.642;2022-12-18T01:37:30;96527.41;;;-5.02;94.62
26978;BME280;56314;48.088;11.642;2022-12-18T01:39:56;96514.59;;;-5.05;94.90
26978;BME280;56314;48.088;11.642;2022-12-18T01:42:21;96526.53;;;-5.10;94.70
26978;BME280;56314;48.088;11.642;2022-12-18T01:50:13;96525.69;;;-5.03;95.14
26978;BME280;56314;48.088;11.642;2022-12-18T01:52:41;96538.50;;;-5.07;96.13
26978;BME280;56314;48.088;11.642;2022-12-18T01:55:09;96528.25;;;-5.04;95.56
26978;BME280;56314;48.088;11.642;2022-12-18T01:57:35;96523.13;;;-5.03;95.66
26978;BME280;56314;48.088;11.642;2022-12-18T02:00:05;96525.72;;;-5.00;95.73
26978;BME280;56314;48.088;11.642;2022-12-18T02:02:32;96524.00;;;-4.95;95.83
26978;BME280;56314;48.088;11.642;2022-12-18T02:04:58;96529.97;;;-4.91;95.79
26978;BME280;56314;48.088;11.642;2022-12-18T02:10:18;96519.72;;;-5.03;94.83
26978;BME280;56314;48.088;11.642;2022-12-18T02:13:07;96517.16;;;-5.06;95.00
26978;BME280;56314;48.088;11.642;2022-12-18T02:15:44;96506.91;;;-5.10;95.11
26978;BME280;56314;48.088;11.642;2022-12-18T02:18:21;96506.03;;;-5.10;95.38
26978;BME280;56314;48.088;11.642;2022-12-18T02:21:08;96500.03;;;-5.18;95.51
26978;BME280;56314;48.088;11.642;2022-12-18T02:23:52;96517.13;;;-5.22;96.11
26978;BME280;56314;48.088;11.642;2022-12-18T02:26:31;96517.97;;;-5.17;96.04
26978;BME280;56314;48.088;11.642;2022-12-18T02:29:03;96509.44;;;-5.13;96.00
26978;BME280;56314;48.088;11.642;2022-12-18T02:31:35;96508.63;;;-5.04;96.02
26978;BME280;56314;48.088;11.642;2022-12-18T02:34:03;96506.94;;;-4.94;95.13
26978;BME280;56314;48.088;11.642;2022-12-18T02:36:31;96512.06;;;-4.94;94.85
26978;BME280;56314;48.088;11.642;2022-12-18T02:38:58;96514.59;;;-5.00;94.87
26978;BME280;56314;48.088;11.642;2022-12-18T02:41:25;96510.31;;;-5.06;95.34
26978;BME280;56314;48.088;11.642;2022-12-18T02:44:01;96498.38;;;-5.05;95.20
26978;BME280;56314;48.088;11.642;2022-12-18T02:46:34;96513.72;;;-5.08;95.54
26978;BME280;56314;48.088;11.642;2022-12-18T02:49:15;96506.91;;;-5.06;95.63
26978;BME280;56314;48.088;11.642;2022-12-18T02:51:53;96493.25;;;-5.04;95.44
26978;BME280;56314;48.088;11.642;2022-12-18T02:54:23;96502.63;;;-5.09;95.44
26978;BME280;56314;48.088;11.642;2022-12-18T02:56:54;96506.91;;;-5.10;95.31
26978;BME280;56314;48.088;11.642;2022-12-18T02:59:27;96512.81;;;-5.26;96.10
26978;BME280;56314;48.088;11.642;2022-12-18T03:02:12;96512.84;;;-5.20;96.01
26978;BME280;56314;48.088;11.642;2022-12-18T03:04:48;96521.38;;;-5.26;96.70
26978;BME280;56314;48.088;11.642;2022-12-18T03:07:19;96510.28;;;-5.14;96.32
26978;BME280;56314;48.088;11.642;2022-12-18T03:09:48;96514.56;;;-5.17;96.61
26978;BME280;56314;48.088;11.642;2022-12-18T03:12:20;96508.59;;;-5.12;96.54
26978;BME280;56314;48.088;11.642;2022-12-18T03:17:59;96502.63;;;-5.07;95.37
26978;BME280;56314;48.088;11.642;2022-12-18T03:20:26;96500.94;;;-5.05;95.36
26978;BME280;56314;48.088;11.642;2022-12-18T03:22:59;96495.81;;;-5.04;95.21
26978;BME280;56314;48.088;11.642;2022-12-18T03:25:27;96494.94;;;-5.04;95.44
26978;BME280;56314;48.088;11.642;2022-12-18T03:27:55;96500.94;;;-5.04;95.99
26978;BME280;56314;48.088;11.642;2022-12-18T03:30:23;96501.78;;;-5.02;96.02
26978;BME280;56314;48.088;11.642;2022-12-18T03:33:07;96501.78;;;-4.99;96.32
26978;BME280;56314;48.088;11.642;2022-12-18T03:35:37;96493.25;;;-5.05;95.79
26978;BME280;56314;48.088;11.642;2022-12-18T03:38:04;96499.25;;;-4.94;96.45
26978;BME280;56314;48.088;11.642;2022-12-18T03:40:45;96498.38;;;-4.90;94.90
26978;BME280;56314;48.088;11.642;2022-12-18T03:43:30;96507.75;;;-5.07;94.77
26978;BME280;56314;48.088;11.642;2022-12-18T03:48:52;96515.44;;;-5.07;95.90
26978;BME280;56314;48.088;11.642;2022-12-18T03:51:36;96512.91;;;-5.00;95.14
26978;BME280;56314;48.088;11.642;2022-12-18T03:54:05;96512.03;;;-5.02;95.25
26978;BME280;56314;48.088;11.642;2022-12-18T03:56:39;96508.63;;;-4.91;95.76
26978;BME280;56314;48.088;11.642;2022-12-18T03:59:08;96498.41;;;-4.87;94.94
26978;BME280;56314;48.088;11.642;2022-12-18T04:01:39;96500.09;;;-4.89;94.19
26978;BME280;56314;48.088;11.642;2022-12-18T04:04:06;96501.78;;;-5.00;94.36
26978;BME280;56314;48.088;11.642;2022-12-18T04:06:34;96511.19;;;-4.98;94.57
26978;BME280;56314;48.088;11.642;2022-12-18T04:09:00;96522.28;;;-4.97;94.63
26978;BME280;56314;48.088;11.642;2022-12-18T04:11:26;96511.19;;;-4.90;94.71
26978;BME280;56314;48.088;11.642;2022-12-18T04:13:55;96510.31;;;-5.01;94.57
26978;BME280;56314;48.088;11.642;2022-12-18T04:16:21;96509.50;;;-4.92;94.20
26978;BME280;56314;48.088;11.642;2022-12-18T04:18:47;96507.78;;;-4.92;94.09
26978;BME280;56314;48.088;11.642;2022-12-18T04:21:12;96510.34;;;-5.03;94.00
26978;BME280;56314;48.088;11.642;2022-12-18T04:23:37;96512.06;;;-4.92;94.13
26978;BME280;56314;48.088;11.642;2022-12-18T04:26:03;96518.84;;;-5.02;93.92
26978;BME280;56314;48.088;11.642;2022-12-18T04:28:28;96518.88;;;-5.05;93.33
26978;BME280;56314;48.088;11.642;2022-12-18T04:30:53;96530.84;;;-5.00;94.02
26978;BME280;56314;48.088;11.642;2022-12-18T04:33:19;96524.84;;;-4.96;93.49
26978;BME280;56314;48.088;11.642;2022-12-18T04:35:44;96526.53;;;-5.07;94.05
26978;BME280;56314;48.088;11.642;2022-12-18T04:38:10;96526.56;;;-5.01;94.49
26978;BME280;56314;48.088;11.642;2022-12-18T04:40:36;96523.13;;;-5.07;93.52
26978;BME280;56314;48.088;11.642;2022-12-18T04:43:02;96528.25;;;-5.06;94.23
26978;BME280;56314;48.088;11.642;2022-12-18T04:45:29;96525.66;;;-5.17;94.33
26978;BME280;56314;48.088;11.642;2022-12-18T04:47:59;96525.59;;;-5.38;94.23
26978;BME280;56314;48.088;11.642;2022-12-18T04:50:25;96521.31;;;-5.36;94.92
26978;BME280;56314;48.088;11.642;2022-12-18T04:52:51;96531.56;;;-5.35;94.71
26978;BME280;56314;48.088;11.642;2022-12-18T04:55:16;96541.88;;;-5.19;94.94
26978;BME280;56314;48.088;11.642;2022-12-18T04:57:41;96557.22;;;-5.26;94.33
26978;BME280;56314;48.088;11.642;2022-12-18T05:00:07;96541.84;;;-5.27;95.01
26978;BME280;56314;48.088;11.642;2022-12-18T05:02:32;96541.88;;;-5.19;95.01
26978;BME280;56314;48.088;11.642;2022-12-18T05:04:58;96547.84;;;-5.11;94.41
26978;BME280;56314;48.088;11.642;2022-12-18T05:07:23;96553.00;;;-5.10;93.94
26978;BME280;56314;48.088;11.642;2022-12-18T05:09:48;96555.53;;;-5.11;93.82
26978;BME280;56314;48.088;11.642;2022-12-18T05:12:14;96548.72;;;-5.09;93.27
26978;BME280;56314;48.088;11.642;2022-12-18T05:14:39;96547.91;;;-5.06;93.41
26978;BME280;56314;48.088;11.642;2022-12-18T05:17:04;96558.13;;;-5.08;93.56
26978;BME280;56314;48.088;11.642;2022-12-18T05:19:30;96552.97;;;-5.19;93.34
26978;BME280;56314;48.088;11.642;2022-12-18T05:21:55;96556.44;;;-5.07;93.65
26978;BME280;56314;48.088;11.642;2022-12-18T05:24:20;96565.84;;;-5.06;93.15
26978;BME280;56314;48.088;11.642;2022-12-18T05:26:46;96567.50;;;-5.16;92.52
26978;BME280;56314;48.088;11.642;2022-12-18T05:29:11;96557.22;;;-5.26;93.40
26978;BME280;56314;48.088;11.642;2022-12-18T05:31:38;96558.94;;;-5.20;93.90
26978;BME280;56314;48.088;11.642;2022-12-18T05:34:03;96556.41;;;-5.15;92.97
26978;BME280;56314;48.088;11.642;2022-12-18T05:36:29;96562.34;;;-5.19;93.97
26978;BME280;56314;48.088;11.642;2022-12-18T05:38:54;96559.81;;;-5.18;93.66
26978;BME280;56314;48.088;11.642;2022-12-18T05:41:19;96562.34;;;-5.21;93.99
26978;BME280;56314;48.088;11.642;2022-12-18T05:43:45;96571.75;;;-5.20;93.13
26978;BME280;56314;48.088;11.642;2022-12-18T05:46:15;96573.47;;;-5.19;93.43
26978;BME280;56314;48.088;11.642;2022-12-18T05:48:42;96575.16;;;-5.21;93.07
26978;BME280;56314;48.088;11.642;2022-12-18T05:51:15;96573.44;;;-5.20;93.09
26978;BME280;56314;48.088;11.642;2022-12-18T05:53:41;96571.72;;;-5.29;93.57
26978;BME280;56314;48.088;11.642;2022-12-18T05:56:09;96584.53;;;-5.29;92.88
26978;BME280;56314;48.088;11.642;2022-12-18T05:58:36;96585.34;;;-5.32;93.32
26978;BME280;56314;48.088;11.642;2022-12-18T06:01:09;96586.25;;;-5.27;93.63
26978;BME280;56314;48.088;11.642;2022-12-18T06:03:35;96582.81;;;-5.30;93.06
26978;BME280;56314;48.088;11.642;2022-12-18T06:06:01;96585.34;;;-5.36;93.33
26978;BME280;56314;48.088;11.642;2022-12-18T06:08:26;96583.53;;;-5.53;93.27
26978;BME280;56314;48.088;11.642;2022-12-18T06:10:52;96583.56;;;-5.50;93.38
26978;BME280;56314;48.088;11.642;2022-12-18T06:13:18;96587.00;;;-5.49;93.78
26978;BME280;56314;48.088;11.642;2022-12-18T06:15:43;96590.44;;;-5.41;94.39
26978;BME280;56314;48.088;11.642;2022-12-18T06:18:09;96588.75;;;-5.39;93.95
26978;BME280;56314;48.088;11.642;2022-12-18T06:20:34;96585.25;;;-5.55;92.76
26978;BME280;56314;48.088;11.642;2022-12-18T06:23:01;96587.75;;;-5.64;93.59
26978;BME280;56314;48.088;11.642;2022-12-18T06:25:27;96582.59;;;-5.69;94.06
26978;BME280;56314;48.088;11.642;2022-12-18T06:27:52;96581.75;;;-5.68;94.50
26978;BME280;56314;48.088;11.642;2022-12-18T06:30:17;96587.75;;;-5.64;94.58
26978;BME280;56314;48.088;11.642;2022-12-18T06:32:43;96592.03;;;-5.60;94.46
26978;BME280;56314;48.088;11.642;2022-12-18T06:35:08;96601.47;;;-5.56;94.14
26978;BME280;56314;48.088;11.642;2022-12-18T06:37:33;96597.22;;;-5.48;94.41
26978;BME280;56314;48.088;11.642;2022-12-18T06:39:59;96603.22;;;-5.46;93.87
26978;BME280;56314;48.088;11.642;2022-12-18T06:42:26;96601.53;;;-5.37;94.67
26978;BME280;56314;48.088;11.642;2022-12-18T06:44:51;96599.00;;;-5.39;94.05
26978;BME280;56314;48.088;11.642;2022-12-18T06:47:17;96615.16;;;-5.43;93.84
26978;BME280;56314;48.088;11.642;2022-12-18T06:49:43;96610.91;;;-5.43;92.67
26978;BME280;56314;48.088;11.642;2022-12-18T06:52:08;96613.47;;;-5.41;93.52
26978;BME280;56314;48.088;11.642;2022-12-18T06:54:34;96618.63;;;-5.38;93.16
26978;BME280;56314;48.088;11.642;2022-12-18T06:56:59;96618.59;;;-5.43;93.41
26978;BME280;56314;48.088;11.642;2022-12-18T06:59:24;96623.69;;;-5.50;93.73
26978;BME280;56314;48.088;11.642;2022-12-18T07:01:50;96623.69;;;-5.50;93.38
26978;BME280;56314;48.088;11.642;2022-12-18T07:04:15;96628.78;;;-5.50;94.01
26978;BME280;56314;48.088;11.642;2022-12-18T07:06:41;96629.66;;;-5.47;92.68
26978;BME280;56314;48.088;11.642;2022-12-18T07:09:06;96633.91;;;-5.50;93.28
26978;BME280;56314;48.088;11.642;2022-12-18T07:11:32;96635.59;;;-5.54;93.10
26978;BME280;56314;48.088;11.642;2022-12-18T07:14:01;96636.47;;;-5.49;92.75
26978;BME280;56314;48.088;11.642;2022-12-18T07:16:27;96639.00;;;-5.52;92.84
26978;BME280;56314;48.088;11.642;2022-12-18T07:18:55;96647.59;;;-5.47;93.37
26978;BME280;56314;48.088;11.642;2022-12-18T07:21:22;96651.00;;;-5.45;93.00
26978;BME280;56314;48.088;11.642;2022-12-18T07:23:48;96642.47;;;-5.48;92.89
26978;BME280;56314;48.088;11.642;2022-12-18T07:26:14;96650.16;;;-5.48;93.52
26978;BME280;56314;48.088;11.642;2022-12-18T07:28:41;96655.25;;;-5.48;92.53
26978;BME280;56314;48.088;11.642;2022-12-18T07:31:09;96670.59;;;-5.50;93.40
26978;BME280;56314;48.088;11.642;2022-12-18T07:33:35;96659.56;;;-5.41;91.75
26978;BME280;56314;48.088;11.642;2022-12-18T07:36:04;96656.97;;;-5.47;92.38
26978;BME280;56314;48.088;11.642;2022-12-18T07:38:31;96656.97;;;-5.44;91.84
26978;BME280;56314;48.088;11.642;2022-12-18T07:41:10;96658.66;;;-5.54;92.26
26978;BME280;56314;48.088;11.642;2022-12-18T07:43:36;96657.84;;;-5.42;92.71
26978;BME280;56314;48.088;11.642;2022-12-18T07:46:02;96651.09;;;-5.28;93.73
26978;BME280;56314;48.088;11.642;2022-12-18T07:48:28;96656.19;;;-5.34;92.67
26978;BME280;56314;48.088;11.642;2022-12-18T07:50:58;96653.63;;;-5.34;92.13
26978;BME280;56314;48.088;11.642;2022-12-18T07:53:24;96645.16;;;-5.20;91.25
26978;BME280;56314;48.088;11.642;2022-12-18T07:55:49;96650.25;;;-5.31;91.40
26978;BME280;56314;48.088;11.642;2022-12-18T07:58:14;96646.81;;;-5.32;91.53
26978;BME280;56314;48.088;11.642;2022-12-18T08:00:39;96651.06;;;-5.34;91.27
26978;BME280;56314;48.088;11.642;2022-12-18T08:03:05;96655.34;;;-5.28;91.07
26978;BME280;56314;48.088;11.642;2022-12-18T08:05:30;96651.94;;;-5.29;90.66
26978;BME280;56314;48.088;11.642;2022-12-18T08:07:55;96662.16;;;-5.36;90.54
26978;BME280;56314;48.088;11.642;2022-12-18T08:10:21;96658.75;;;-5.35;91.20
26978;BME280;56314;48.088;11.642;2022-12-18T08:12:50;96660.47;;;-5.28;90.91
26978;BME280;56314;48.088;11.642;2022-12-18T08:15:17;96669.88;;;-5.30;90.87
26978;BME280;56314;48.088;11.642;2022-12-18T08:17:42;96672.44;;;-5.29;90.57
26978;BME280;56314;48.088;11.642;2022-12-18T08:20:08;96677.47;;;-5.44;90.47
26978;BME280;56314;48.088;11.642;2022-12-18T08:22:37;96677.50;;;-5.36;90.70
26978;BME280;56314;48.088;11.642;2022-12-18T08:25:03;96678.41;;;-5.25;90.63
26978;BME280;56314;48.088;11.642;2022-12-18T08:27:29;96676.66;;;-5.34;89.70
26978;BME280;56314;48.088;11.642;2022-12-18T08:29:55;96678.34;;;-5.37;90.47
26978;BME280;56314;48.088;11.642;2022-12-18T08:32:20;96681.81;;;-5.32;89.95
26978;BME280;56314;48.088;11.642;2022-12-18T08:34:46;96688.66;;;-5.30;90.17
26978;BME280;56314;48.088;11.642;2022-12-18T08:37:11;96679.25;;;-5.32;90.00
26978;BME280;56314;48.088;11.642;2022-12-18T08:39:37;96679.16;;;-5.46;90.45
26978;BME280;56314;48.088;11.642;2022-12-18T08:42:02;96686.81;;;-5.48;90.53
26978;BME280;56314;48.088;11.642;2022-12-18T08:44:46;96677.47;;;-5.39;90.82
26978;BME280;56314;48.088;11.642;2022-12-18T08:47:11;96677.56;;;-5.29;91.29
26978;BME280;56314;48.088;11.642;2022-12-18T08:49:36;96680.13;;;-5.27;90.35
26978;BME280;56314;48.088;11.642;2022-12-18T08:52:02;96680.09;;;-5.33;89.57
26978;BME280;56314;48.088;11.642;2022-12-18T08:54:29;96687.75;;;-5.38;89.78
26978;BME280;56314;48.088;11.642;2022-12-18T08:56:54;96692.84;;;-5.41;89.66
26978;BME280;56314;48.088;11.642;2022-12-18T08:59:19;96685.22;;;-5.32;90.90
26978;BME280;56314;48.088;11.642;2022-12-18T09:01:45;96694.63;;;-5.29;90.18
26978;BME280;56314;48.088;11.642;2022-12-18T09:04:12;96687.81;;;-5.24;89.00
26978;BME280;56314;48.088;11.642;2022-12-18T09:06:37;96692.94;;;-5.30;88.86
26978;BME280;56314;48.088;11.642;2022-12-18T09:09:03;96692.09;;;-5.24;89.27
26978;BME280;56314;48.088;11.642;2022-12-18T09:11:30;96692.94;;;-5.26;88.82
26978;BME280;56314;48.088;11.642;2022-12-18T09:13:56;96692.94;;;-5.24;89.74
26978;BME280;56314;48.088;11.642;2022-12-18T09:16:22;96701.56;;;-5.10;89.40
26978;BME280;56314;48.088;11.642;2022-12-18T09:18:48;96693.00;;;-5.16;88.48
26978;BME280;56314;48.088;11.642;2022-12-18T09:21:18;96694.72;;;-5.11;88.16
26978;BME280;56314;48.088;11.642;2022-12-18T09:23:49;96694.78;;;-5.03;87.96
26978;BME280;56314;48.088;11.642;2022-12-18T09:26:15;96687.94;;;-5.02;88.53
26978;BME280;56314;48.088;11.642;2022-12-18T09:28:40;96696.50;;;-4.96;86.29
26978;BME280;56314;48.088;11.642;2022-12-18T09:31:07;96693.00;;;-5.12;87.51
26978;BME280;56314;48.088;11.642;2022-12-18T09:33:36;96692.25;;;-4.93;87.93
26978;BME280;56314;48.088;11.642;2022-12-18T09:36:07;96693.13;;;-4.85;87.06
26978;BME280;56314;48.088;11.642;2022-12-18T09:38:34;96690.56;;;-4.87;86.54
26978;BME280;56314;48.088;11.642;2022-12-18T09:41:05;96694.88;;;-4.76;86.38
26978;BME280;56314;48.088;11.642;2022-12-18T09:43:49;96699.16;;;-4.77;86.51
26978;BME280;56314;48.088;11.642;2022-12-18T09:46:28;96682.97;;;-4.56;86.86
26978;BME280;56314;48.088;11.642;2022-12-18T09:48:56;96693.25;;;-4.64;85.51
26978;BME280;56314;48.088;11.642;2022-12-18T09:51:35;96697.50;;;-4.70;86.31
26978;BME280;56314;48.088;11.642;2022-12-18T09:54:25;96691.53;;;-4.60;85.89
26978;BME280;56314;48.088;11.642;2022-12-18T09:56:51;96687.25;;;-4.55;85.57
26978;BME280;56314;48.088;11.642;2022-12-18T09:59:36;96675.31;;;-4.48;84.73
26978;BME280;56314;48.088;11.642;2022-12-18T10:02:32;96681.34;;;-4.43;84.66
26978;BME280;56314;48.088;11.642;2022-12-18T10:05:10;96679.66;;;-4.27;83.16
26978;BME280;56314;48.088;11.642;2022-12-18T10:07:47;96680.50;;;-4.34;84.10
26978;BME280;56314;48.088;11.642;2022-12-18T10:10:29;96672.78;;;-4.40;83.30
26978;BME280;56314;48.088;11.642;2022-12-18T10:13:08;96668.44;;;-4.57;83.19
26978;BME280;56314;48.088;11.642;2022-12-18T10:15:53;96663.31;;;-4.63;83.99
26978;BME280;56314;48.088;11.642;2022-12-18T10:21:05;96659.94;;;-4.59;83.63
26978;BME280;56314;48.088;11.642;2022-12-18T10:26:04;96655.63;;;-4.58;83.74
26978;BME280;56314;48.088;11.642;2022-12-18T10:28:32;96653.09;;;-4.55;84.16
26978;BME280;56314;48.088;11.642;2022-12-18T10:30:58;96650.50;;;-4.63;84.64
26978;BME280;56314;48.088;11.642;2022-12-18T10:33:28;96648.84;;;-4.45;85.43
26978;BME280;56314;48.088;11.642;2022-12-18T10:35:54;96638.56;;;-4.53;83.78
26978;BME280;56314;48.088;11.642;2022-12-18T10:38:26;96645.41;;;-4.41;83.89
26978;BME280;56314;48.088;11.642;2022-12-18T10:43:23;96638.59;;;-4.30;82.85
26978;BME280;56314;48.088;11.642;2022-12-18T10:46:02;96631.75;;;-4.37;83.50
26978;BME280;56314;48.088;11.642;2022-12-18T10:48:31;96623.22;;;-4.28;82.99
26978;BME280;56314;48.088;11.642;2022-12-18T10:50:59;96634.31;;;-4.31;81.64
26978;BME280;56314;48.088;11.642;2022-12-18T10:53:29;96640.28;;;-4.41;83.21
26978;BME280;56314;48.088;11.642;2022-12-18T10:56:02;96636.03;;;-4.31;82.73
26978;BME280;56314;48.088;11.642;2022-12-18T10:58:31;96637.72;;;-4.37;82.27
26978;BME280;56314;48.088;11.642;2022-12-18T11:01:15;96644.56;;;-4.50;82.75
26978;BME280;56314;48.088;11.642;2022-12-18T11:03:42;96639.44;;;-4.51;83.48
26978;BME280;56314;48.088;11.642;2022-12-18T11:08:38;96646.19;;;-4.72;83.80
26978;BME280;56314;48.088;11.642;2022-12-18T11:11:16;96644.47;;;-4.82;84.17
26978;BME280;56314;48.088;11.642;2022-12-18T11:14:13;96651.34;;;-4.67;84.30
26978;BME280;56314;48.088;11.642;2022-12-18T11:16:43;96650.50;;;-4.69;83.60
26978;BME280;56314;48.088;11.642;2022-12-18T11:19:33;96658.19;;;-4.58;83.73
26978;BME280;56314;48.088;11.642;2022-12-18T11:22:01;96658.19;;;-4.61;84.00
26978;BME280;56314;48.088;11.642;2022-12-18T11:24:34;96652.22;;;-4.60;83.91
26978;BME280;56314;48.088;11.642;2022-12-18T11:27:16;96653.88;;;-4.75;84.29
26978;BME280;56314;48.088;11.642;2022-12-18T11:29:43;96653.06;;;-4.61;83.51
26978;BME280;56314;48.088;11.642;2022-12-18T11:34:41;96654.75;;;-4.71;83.84
26978;BME280;56314;48.088;11.642;2022-12-18T11:37:11;96657.38;;;-4.59;83.66
26978;BME280;56314;48.088;11.642;2022-12-18T11:39:41;96651.34;;;-4.64;83.90
26978;BME280;56314;48.088;11.642;2022-12-18T11:42:38;96647.97;;;-4.54;84.02
26978;BME280;56314;48.088;11.642;2022-12-18T11:48:00;96626.63;;;-4.42;83.41
26978;BME280;56314;48.088;11.642;2022-12-18T11:50:38;96632.63;;;-4.34;82.67
26978;BME280;56314;48.088;11.642;2022-12-18T11:53:10;96618.94;;;-4.23;82.64
26978;BME280;56314;48.088;11.642;2022-12-18T11:58:44;96624.06;;;-4.37;82.28
26978;BME280;56314;48.088;11.642;2022-12-18T12:01:35;96624.91;;;-4.37;82.39
26978;BME280;56314;48.088;11.642;2022-12-18T12:24:10;96624.94;;;-4.27;81.69
26978;BME280;56314;48.088;11.642;2022-12-18T12:39:46;96601.78;;;-4.66;84.01
26978;BME280;56314;48.088;11.642;2022-12-18T12:42:36;96601.81;;;-4.49;82.89
26978;BME280;56314;48.088;11.642;2022-12-18T12:45:37;96606.09;;;-4.57;83.22
26978;BME280;56314;48.088;11.642;2022-12-18T12:48:07;96600.97;;;-4.64;83.33
26978;BME280;56314;48.088;11.642;2022-12-18T12:50:40;96607.78;;;-4.61;83.17
26978;BME280;56314;48.088;11.642;2022-12-18T12:53:07;96600.09;;;-4.69;83.74
26978;BME280;56314;48.088;11.642;2022-12-18T12:55:37;96605.22;;;-4.70;83.24
26978;BME280;56314;48.088;11.642;2022-12-18T13:01:19;96605.19;;;-4.67;85.01
26978;BME280;56314;48.088;11.642;2022-12-18T13:03:57;96602.69;;;-4.58;85.01
26978;BME280;56314;48.088;11.642;2022-12-18T13:06:48;96612.03;;;-4.61;84.19
26978;BME280;56314;48.088;11.642;2022-12-18T13:09:15;96612.97;;;-4.41;84.50
26978;BME280;56314;48.088;11.642;2022-12-18T13:11:47;96608.66;;;-4.48;84.32
26978;BME280;56314;48.088;11.642;2022-12-18T13:14:37;96606.13;;;-4.46;84.91
26978;BME280;56314;48.088;11.642;2022-12-18T13:17:28;96602.69;;;-4.35;84.87
26978;BME280;56314;48.088;11.642;2022-12-18T13:20:09;96604.41;;;-4.34;83.51
26978;BME280;56314;48.088;11.642;2022-12-18T13:22:39;96604.41;;;-4.30;83.81
26978;BME280;56314;48.088;11.642;2022-12-18T13:28:07;96614.66;;;-4.34;83.37
26978;BME280;56314;48.088;11.642;2022-12-18T13:30:41;96619.81;;;-4.35;83.81
26978;BME280;56314;48.088;11.642;2022-12-18T13:35:53;96612.94;;;-4.30;84.01
26978;BME280;56314;48.088;11.642;2022-12-18T13:43:23;96627.44;;;-4.60;83.89
26978;BME280;56314;48.088;11.642;2022-12-18T13:48:33;96627.44;;;-4.57;84.66
26978;BME280;56314;48.088;11.642;2022-12-18T13:51:05;96622.34;;;-4.52;85.65
26978;BME280;56314;48.088;11.642;2022-12-18T13:53:59;96628.28;;;-4.61;85.40
26978;BME280;56314;48.088;11.642;2022-12-18T13:56:31;96622.31;;;-4.60;84.90
26978;BME280;56314;48.088;11.642;2022-12-18T14:01:53;96615.47;;;-4.61;85.89
26978;BME280;56314;48.088;11.642;2022-12-18T14:04:27;96607.78;;;-4.61;86.06
26978;BME280;56314;48.088;11.642;2022-12-18T14:06:57;96612.88;;;-4.72;85.09
26978;BME280;56314;48.088;11.642;2022-12-18T14:09:26;96606.00;;;-4.90;85.92
26978;BME280;56314;48.088;11.642;2022-12-18T14:11:53;96612.78;;;-5.01;87.75
26978;BME280;56314;48.088;11.642;2022-12-18T14:14:45;96609.34;;;-5.08;88.09
26978;BME280;56314;48.088;11.642;2022-12-18T14:17:12;96611.97;;;-4.97;88.11
26978;BME280;56314;48.088;11.642;2022-12-18T14:19:42;96622.19;;;-5.02;88.43
26978;BME280;56314;48.088;11.642;2022-12-18T14:22:15;96606.81;;;-5.02;87.97
26978;BME280;56314;48.088;11.642;2022-12-18T14:24:41;96621.31;;;-5.02;88.34
26978;BME280;56314;48.088;11.642;2022-12-18T14:27:20;96611.94;;;-5.02;88.96
26978;BME280;56314;48.088;11.642;2022-12-18T14:29:47;96616.19;;;-5.08;88.57